createdAt,value
2023-03-24T00:00:20.612Z,1.50
2023-03-24T00:02:48.823Z,1.77
2023-03-24T00:05:18.244Z,1.87
2023-03-24T00:07:46.694Z,1.77
2023-03-24T00:10:22.865Z,1.60
2023-03-24T00:12:50.806Z,1.77
2023-03-24T00:15:19.969Z,1.50
2023-03-24T00:17:50.671Z,1.60
2023-03-24T00:20:20.514Z,1.50
2023-03-24T00:22:51.081Z,1.57
2023-03-24T00:25:19.799Z,1.73
2023-03-24T00:27:51.546Z,1.73
2023-03-24T00:30:19.805Z,1.53
2023-03-24T00:32:47.513Z,1.97
2023-03-24T00:35:16.451Z,1.60
2023-03-24T00:37:44.854Z,1.83
2023-03-24T00:40:14.525Z,1.80
2023-03-24T00:42:46.155Z,2.00
2023-03-24T00:45:18.355Z,1.90
2023-03-24T00:47:45.793Z,1.70
2023-03-24T00:50:15.963Z,1.80
2023-03-24T00:52:44.387Z,1.60
2023-03-24T00:55:16.374Z,1.80
2023-03-24T00:57:50.855Z,1.73
2023-03-24T01:00:20.776Z,1.43
2023-03-24T01:02:53.750Z,1.83
2023-03-24T01:05:22.684Z,1.80
2023-03-24T01:07:52.417Z,1.53
2023-03-24T01:10:26.847Z,2.20
2023-03-24T01:12:56.895Z,1.73
2023-03-24T01:15:26.643Z,1.97
2023-03-24T01:17:54.537Z,1.70
2023-03-24T01:20:23.356Z,1.50
2023-03-24T01:22:51.031Z,1.80
2023-03-24T01:25:20.521Z,1.70
2023-03-24T01:27:49.041Z,1.70
2023-03-24T01:30:18.198Z,1.77
2023-03-24T01:32:45.571Z,1.80
2023-03-24T01:35:13.601Z,2.20
2023-03-24T01:37:41.360Z,1.87
2023-03-24T01:40:10.180Z,1.90
2023-03-24T01:42:38.407Z,1.87
2023-03-24T01:45:24.283Z,1.60
2023-03-24T01:47:51.846Z,1.70
2023-03-24T01:50:19.285Z,1.43
2023-03-24T01:52:46.643Z,1.70
2023-03-24T01:55:18.728Z,1.70
2023-03-24T01:57:50.679Z,2.00
2023-03-24T02:00:19.285Z,1.70
2023-03-24T02:05:24.042Z,1.83
2023-03-24T02:07:54.682Z,2.17
2023-03-24T02:10:22.900Z,1.90
2023-03-24T02:12:50.326Z,1.70
2023-03-24T02:15:19.244Z,1.87
2023-03-24T02:17:54.765Z,1.53
2023-03-24T02:20:48.603Z,1.53
2023-03-24T02:23:34.768Z,1.30
2023-03-24T02:26:08.325Z,1.53
2023-03-24T02:28:58.811Z,1.73
2023-03-24T02:31:29.289Z,1.80
2023-03-24T02:34:08.136Z,1.60
2023-03-24T02:36:54.628Z,1.90
2023-03-24T02:39:28.086Z,1.63
2023-03-24T02:41:55.405Z,1.80
2023-03-24T02:44:22.808Z,1.90
2023-03-24T02:47:05.925Z,1.60
2023-03-24T02:49:41.292Z,1.80
2023-03-24T02:52:08.684Z,1.70
2023-03-24T02:54:50.763Z,1.57
2023-03-24T02:57:18.162Z,1.70
2023-03-24T02:59:48.246Z,1.67
2023-03-24T03:02:18.280Z,1.67
2023-03-24T03:04:50.002Z,1.50
2023-03-24T03:07:21.851Z,1.57
2023-03-24T03:09:56.481Z,1.80
2023-03-24T03:12:25.528Z,1.80
2023-03-24T03:14:55.441Z,1.70
2023-03-24T03:17:30.947Z,1.50
2023-03-24T03:20:05.085Z,1.30
2023-03-24T03:22:35.803Z,2.17
2023-03-24T03:25:03.586Z,1.70
2023-03-24T03:27:39.513Z,2.97
2023-03-24T03:30:08.617Z,2.10
2023-03-24T03:32:39.486Z,1.70
2023-03-24T03:35:27.365Z,1.87
2023-03-24T03:38:04.298Z,1.80
2023-03-24T03:40:34.693Z,2.27
2023-03-24T03:43:02.185Z,2.13
2023-03-24T03:45:29.725Z,1.90
2023-03-24T03:47:57.366Z,1.80
2023-03-24T03:50:24.938Z,2.13
2023-03-24T03:52:53.023Z,1.93
2023-03-24T03:55:20.417Z,2.00
2023-03-24T03:57:47.972Z,1.80
2023-03-24T04:00:16.967Z,1.60
2023-03-24T04:02:44.336Z,2.10
2023-03-24T04:05:26.269Z,1.90
2023-03-24T04:08:03.688Z,2.30
2023-03-24T04:10:43.242Z,2.00
2023-03-24T04:13:10.845Z,1.93
2023-03-24T04:15:38.204Z,1.93
2023-03-24T04:18:05.600Z,1.80
2023-03-24T04:20:46.740Z,2.33
2023-03-24T04:23:14.843Z,1.97
2023-03-24T04:26:01.688Z,2.13
2023-03-24T04:28:48.206Z,2.27
2023-03-24T04:31:23.678Z,1.93
2023-03-24T04:33:53.576Z,2.40
2023-03-24T04:36:27.563Z,2.37
2023-03-24T04:38:57.387Z,2.33
2023-03-24T04:41:27.249Z,2.30
2023-03-24T04:43:55.804Z,2.17
2023-03-24T04:46:23.460Z,2.47
2023-03-24T04:48:51.004Z,2.40
2023-03-24T04:51:19.490Z,2.40
2023-03-24T04:53:47.206Z,2.60
2023-03-24T04:56:29.940Z,2.50
2023-03-24T04:58:58.807Z,2.80
2023-03-24T05:01:30.577Z,2.80
2023-03-24T05:03:59.289Z,2.40
2023-03-24T05:06:27.708Z,2.40
2023-03-24T05:08:57.327Z,2.47
2023-03-24T05:11:24.637Z,2.43
2023-03-24T05:13:52.163Z,2.47
2023-03-24T05:16:19.528Z,2.70
2023-03-24T05:18:47.326Z,2.90
2023-03-24T05:21:14.684Z,3.10
2023-03-24T05:23:42.118Z,2.90
2023-03-24T05:26:09.722Z,2.70
2023-03-24T05:28:37.162Z,2.70
2023-03-24T05:31:04.917Z,3.20
2023-03-24T05:33:32.415Z,3.37
2023-03-24T05:35:59.792Z,2.83
2023-03-24T05:38:27.253Z,3.40
2023-03-24T05:40:58.563Z,3.23
2023-03-24T05:43:26.361Z,2.70
2023-03-24T05:45:54.170Z,3.37
2023-03-24T05:48:21.482Z,3.13
2023-03-24T05:50:48.804Z,3.13
2023-03-24T05:53:16.601Z,3.10
2023-03-24T05:55:44.138Z,3.23
2023-03-24T05:58:11.942Z,3.50
2023-03-24T06:00:39.484Z,3.40
2023-03-24T06:03:06.903Z,3.37
2023-03-24T06:05:34.244Z,3.33
2023-03-24T06:08:01.645Z,3.37
2023-03-24T06:10:29.885Z,3.10
2023-03-24T06:12:57.456Z,3.47
2023-03-24T06:15:27.981Z,3.37
2023-03-24T06:17:55.882Z,3.83
2023-03-24T06:20:23.407Z,3.47
2023-03-24T06:22:50.939Z,3.30
2023-03-24T06:25:21.655Z,3.17
2023-03-24T06:27:49.080Z,3.23
2023-03-24T06:30:17.769Z,3.67
2023-03-24T06:32:46.943Z,3.47
2023-03-24T06:35:15.928Z,3.40
2023-03-24T06:37:43.728Z,3.53
2023-03-24T06:40:14.409Z,3.27
2023-03-24T06:42:41.849Z,3.60
2023-03-24T06:45:10.250Z,4.00
2023-03-24T06:47:38.098Z,3.93
2023-03-24T06:50:07.120Z,4.00
2023-03-24T06:52:35.739Z,3.90
2023-03-24T06:57:30.773Z,4.10
2023-03-24T06:59:58.245Z,3.90
2023-03-24T07:02:25.812Z,4.90
2023-03-24T07:04:55.202Z,5.33
2023-03-24T07:07:53.432Z,4.33
2023-03-24T07:10:10.743Z,3.87
2023-03-24T07:12:38.171Z,4.37
2023-03-24T07:15:07.486Z,4.57
2023-03-24T07:17:35.100Z,4.60
2023-03-24T07:20:05.525Z,4.53
2023-03-24T07:22:32.884Z,4.37
2023-03-24T07:25:04.651Z,4.87
2023-03-24T07:27:35.649Z,4.13
2023-03-24T07:30:03.253Z,4.17
2023-03-24T07:32:35.141Z,4.47
2023-03-24T07:35:02.773Z,4.30
2023-03-24T07:37:30.198Z,4.17
2023-03-24T07:39:57.535Z,4.30
2023-03-24T07:42:25.692Z,4.77
2023-03-24T07:44:53.079Z,4.30
2023-03-24T07:47:20.910Z,5.13
2023-03-24T07:49:51.286Z,5.60
2023-03-24T07:52:18.608Z,5.07
2023-03-24T07:54:46.005Z,5.50
2023-03-24T07:57:13.451Z,5.47
2023-03-24T07:59:40.979Z,5.23
2023-03-24T08:02:17.279Z,5.50
2023-03-24T08:04:45.149Z,5.23
2023-03-24T08:07:14.015Z,5.23
2023-03-24T08:09:41.904Z,5.73
2023-03-24T08:12:17.808Z,5.20
2023-03-24T08:14:47.670Z,5.57
2023-03-24T08:17:15.078Z,4.87
2023-03-24T08:19:56.255Z,5.23
2023-03-24T08:22:27.445Z,4.57
2023-03-24T08:24:54.935Z,4.20
2023-03-24T08:27:22.293Z,4.70
2023-03-24T08:29:53.116Z,4.40
2023-03-24T08:32:20.583Z,5.00
2023-03-24T08:34:47.888Z,4.70
2023-03-24T08:37:15.228Z,4.47
2023-03-24T08:39:42.530Z,4.80
2023-03-24T08:42:09.894Z,5.03
2023-03-24T08:44:37.288Z,4.80
2023-03-24T08:47:04.724Z,4.97
2023-03-24T08:49:32.048Z,5.13
2023-03-24T08:51:59.570Z,5.30
2023-03-24T08:54:27.081Z,4.60
2023-03-24T08:56:54.485Z,4.60
2023-03-24T08:59:21.959Z,4.63
2023-03-24T09:01:52.522Z,4.60
2023-03-24T09:04:19.846Z,5.07
2023-03-24T09:06:47.200Z,6.10
2023-03-24T09:09:14.528Z,5.93
2023-03-24T09:11:41.962Z,5.00
2023-03-24T09:14:09.362Z,4.40
2023-03-24T09:16:36.744Z,5.17
2023-03-24T09:19:04.121Z,4.50
2023-03-24T09:21:31.951Z,5.13
2023-03-24T09:23:59.411Z,5.20
2023-03-24T09:26:26.799Z,4.40
2023-03-24T09:28:54.278Z,4.30
2023-03-24T09:31:21.863Z,4.20
2023-03-24T09:33:52.009Z,4.60
2023-03-24T09:36:19.413Z,4.00
2023-03-24T09:38:46.819Z,4.27
2023-03-24T09:41:18.791Z,3.80
2023-03-24T09:43:58.256Z,4.63
2023-03-24T09:46:30.121Z,4.73
2023-03-24T09:48:57.856Z,4.20
2023-03-24T09:51:35.497Z,4.80
2023-03-24T09:54:08.635Z,4.57
2023-03-24T09:56:40.435Z,4.10
2023-03-24T09:59:09.198Z,4.53
2023-03-24T10:01:36.761Z,4.40
2023-03-24T10:04:05.055Z,4.60
2023-03-24T10:06:38.801Z,4.90
2023-03-24T10:09:17.966Z,4.57
2023-03-24T10:11:58.649Z,3.87
2023-03-24T10:14:40.480Z,3.60
2023-03-24T10:17:13.761Z,3.47
2023-03-24T10:19:59.999Z,3.90
2023-03-24T10:22:30.823Z,4.00
2023-03-24T10:25:21.731Z,4.00
2023-03-24T10:28:03.768Z,3.63
2023-03-24T10:30:34.221Z,4.23
2023-03-24T10:33:01.678Z,4.23
2023-03-24T10:35:31.279Z,4.30
2023-03-24T10:38:00.456Z,4.60
2023-03-24T10:40:33.430Z,4.40
2023-03-24T10:43:07.212Z,3.70
2023-03-24T10:45:38.919Z,4.20
2023-03-24T10:48:07.697Z,3.20
2023-03-24T10:50:36.223Z,4.43
2023-03-24T10:53:09.884Z,3.50
2023-03-24T10:55:43.768Z,3.03
2023-03-24T10:58:34.423Z,3.50
2023-03-24T11:01:03.138Z,3.67
2023-03-24T11:03:33.036Z,3.00
2023-03-24T11:06:01.896Z,4.10
2023-03-24T11:08:34.085Z,4.33
2023-03-24T11:11:01.321Z,4.00
2023-03-24T11:13:28.690Z,4.03
2023-03-24T11:15:56.361Z,3.77
2023-03-24T11:18:23.761Z,4.10
2023-03-24T11:20:57.921Z,4.03
2023-03-24T11:23:32.933Z,4.13
2023-03-24T11:26:04.923Z,5.07
2023-03-24T11:28:36.280Z,4.43
2023-03-24T11:31:08.066Z,4.87
2023-03-24T11:33:36.936Z,4.67
2023-03-24T11:36:25.225Z,5.57
2023-03-24T11:39:00.159Z,4.73
2023-03-24T11:41:27.623Z,4.57
2023-03-24T11:44:13.126Z,4.87
2023-03-24T11:46:42.492Z,5.70
2023-03-24T11:49:10.338Z,5.60
2023-03-24T11:51:39.320Z,5.73
2023-03-24T11:54:10.682Z,6.13
2023-03-24T11:56:40.950Z,6.33
2023-03-24T11:59:14.802Z,6.03
2023-03-24T12:01:49.460Z,5.77
2023-03-24T12:04:29.327Z,5.27
2023-03-24T12:07:07.487Z,5.80
2023-03-24T12:09:37.644Z,5.60
2023-03-24T12:12:17.246Z,5.90
2023-03-24T12:14:52.815Z,5.57
2023-03-24T12:17:24.589Z,5.07
2023-03-24T12:20:05.757Z,5.67
2023-03-24T12:22:51.651Z,6.03
2023-03-24T12:25:28.575Z,7.73
2023-03-24T12:27:58.670Z,8.30
2023-03-24T12:30:52.537Z,7.37
2023-03-24T12:33:46.228Z,7.30
2023-03-24T12:36:13.689Z,7.30
2023-03-24T12:38:53.607Z,7.57
2023-03-24T12:41:25.022Z,7.07
2023-03-24T12:44:16.803Z,7.67
2023-03-24T12:46:51.451Z,7.93
2023-03-24T12:49:27.096Z,7.90
2023-03-24T12:52:08.567Z,8.40
2023-03-24T12:54:35.983Z,8.47
2023-03-24T12:57:07.812Z,9.30
2023-03-24T12:59:41.776Z,9.50
2023-03-24T13:02:15.079Z,9.27
2023-03-24T13:04:43.783Z,9.73
2023-03-24T13:07:16.824Z,9.13
2023-03-24T13:09:46.323Z,9.00
2023-03-24T13:12:19.024Z,9.60
2023-03-24T13:14:52.244Z,7.73
2023-03-24T13:17:24.949Z,8.33
2023-03-24T13:19:52.849Z,7.47
2023-03-24T13:22:21.568Z,7.17
2023-03-24T13:24:49.285Z,7.47
2023-03-24T13:27:20.826Z,7.67
2023-03-24T13:30:00.370Z,6.13
2023-03-24T13:32:32.299Z,6.33
2023-03-24T13:34:59.728Z,5.97
2023-03-24T13:37:38.329Z,6.30
2023-03-24T13:40:11.616Z,6.37
2023-03-24T13:42:44.131Z,5.97
2023-03-24T13:45:32.855Z,6.80
2023-03-24T13:48:00.234Z,6.93
2023-03-24T13:50:28.730Z,5.60
2023-03-24T13:52:56.489Z,5.93
2023-03-24T13:55:36.489Z,7.50
2023-03-24T13:58:10.834Z,5.90
2023-03-24T14:01:13.705Z,5.23
2023-03-24T14:03:43.489Z,5.57
2023-03-24T14:06:12.014Z,5.77
2023-03-24T14:08:43.807Z,6.70
2023-03-24T14:11:31.142Z,6.20
2023-03-24T14:14:16.603Z,5.93
2023-03-24T14:17:03.388Z,5.03
2023-03-24T14:19:40.573Z,4.10
2023-03-24T14:22:15.524Z,4.33
2023-03-24T14:24:47.126Z,3.60
2023-03-24T14:27:31.842Z,2.77
2023-03-24T14:30:07.567Z,2.47
2023-03-24T14:32:39.126Z,3.43
2023-03-24T14:35:19.466Z,3.67
2023-03-24T14:37:54.848Z,3.40
2023-03-24T14:40:32.414Z,2.67
2023-03-24T14:43:04.869Z,3.70
2023-03-24T14:45:51.909Z,3.70
2023-03-24T14:48:40.407Z,3.90
2023-03-24T14:51:13.520Z,2.87
2023-03-24T14:53:41.886Z,3.07
2023-03-24T14:56:14.382Z,2.57
2023-03-24T14:58:44.121Z,2.60
2023-03-24T15:01:12.299Z,2.23
2023-03-24T15:03:46.099Z,2.70
2023-03-24T15:06:16.039Z,2.67
2023-03-24T15:08:47.886Z,2.70
2023-03-24T15:11:17.605Z,2.37
2023-03-24T15:13:51.673Z,2.70
2023-03-24T15:16:21.719Z,2.27
2023-03-24T15:18:58.131Z,2.40
2023-03-24T15:21:39.691Z,2.10
2023-03-24T15:24:27.284Z,2.60
2023-03-24T15:26:56.218Z,2.17
2023-03-24T15:29:24.164Z,2.90
2023-03-24T15:31:51.816Z,3.30
2023-03-24T15:34:33.966Z,2.23
2023-03-24T15:37:03.805Z,2.20
2023-03-24T15:39:38.057Z,2.10
2023-03-24T15:42:09.887Z,2.13
2023-03-24T15:44:38.611Z,2.27
2023-03-24T15:47:12.127Z,2.60
2023-03-24T15:49:39.856Z,2.50
2023-03-24T15:52:25.846Z,2.30
2023-03-24T15:54:55.040Z,2.53
2023-03-24T15:57:23.618Z,2.53
2023-03-24T15:59:59.763Z,2.00
2023-03-24T16:02:33.202Z,2.40
2023-03-24T16:05:10.775Z,2.00
2023-03-24T16:07:40.833Z,2.30
2023-03-24T16:10:26.759Z,2.60
2023-03-24T16:12:54.243Z,2.67
2023-03-24T16:15:21.568Z,2.60
2023-03-24T16:17:49.098Z,2.30
2023-03-24T16:20:20.120Z,1.73
2023-03-24T16:22:47.571Z,2.20
2023-03-24T16:25:15.097Z,2.50
2023-03-24T16:27:42.489Z,2.53
2023-03-24T16:30:21.731Z,2.70
2023-03-24T16:32:49.279Z,2.10
2023-03-24T16:35:16.817Z,1.70
2023-03-24T16:37:47.249Z,1.70
2023-03-24T16:40:40.897Z,1.70
2023-03-24T16:43:08.371Z,2.10
2023-03-24T16:45:36.530Z,2.00
2023-03-24T16:48:04.073Z,2.33
2023-03-24T16:50:31.769Z,2.30
2023-03-24T16:52:59.447Z,2.50
2023-03-24T16:55:26.848Z,1.93
2023-03-24T16:57:55.398Z,1.80
2023-03-24T17:00:23.048Z,2.27
2023-03-24T17:02:53.934Z,2.17
2023-03-24T17:05:27.851Z,2.50
2023-03-24T17:07:56.081Z,1.63
2023-03-24T17:10:24.782Z,2.00
2023-03-24T17:12:54.369Z,2.00
2023-03-24T17:15:31.357Z,2.10
2023-03-24T17:17:58.742Z,2.63
2023-03-24T17:20:26.925Z,2.97
2023-03-24T17:22:56.962Z,3.53
2023-03-24T17:25:24.770Z,4.03
2023-03-24T17:27:52.322Z,4.37
2023-03-24T17:30:21.055Z,2.10
2023-03-24T17:32:49.088Z,1.30
2023-03-24T17:35:18.116Z,1.00
2023-03-24T17:37:46.334Z,1.13
2023-03-24T17:40:14.371Z,0.50
2023-03-24T17:42:45.124Z,0.50
2023-03-24T17:45:14.962Z,0.40
2023-03-24T17:47:42.526Z,0.57
2023-03-24T17:50:10.606Z,0.40
2023-03-24T17:52:38.654Z,0.47
2023-03-24T17:55:07.069Z,0.60
2023-03-24T17:57:34.767Z,0.50
2023-03-24T18:00:02.245Z,0.30
2023-03-24T18:02:29.787Z,0.30
2023-03-24T18:04:58.722Z,0.47
2023-03-24T18:07:26.317Z,0.50
2023-03-24T18:09:53.597Z,0.50
2023-03-24T18:12:21.278Z,0.50
2023-03-24T18:14:48.772Z,0.90
2023-03-24T18:17:16.401Z,0.43
2023-03-24T18:19:43.956Z,0.33
2023-03-24T18:22:11.599Z,0.30
2023-03-24T18:24:39.248Z,0.40
2023-03-24T18:27:10.085Z,0.40
2023-03-24T18:29:41.298Z,0.20
2023-03-24T18:32:08.939Z,0.40
2023-03-24T18:34:39.049Z,0.20
2023-03-24T18:37:07.157Z,0.20
2023-03-24T18:39:35.722Z,0.20
2023-03-24T18:42:04.933Z,0.27
2023-03-24T18:44:32.238Z,0.33
2023-03-24T18:46:59.561Z,0.40
2023-03-24T18:49:27.081Z,0.20
2023-03-24T18:51:54.438Z,0.20
2023-03-24T18:54:22.001Z,0.23
2023-03-24T18:56:49.370Z,1.27
2023-03-24T18:59:16.999Z,0.30
2023-03-24T19:01:47.576Z,0.50
2023-03-24T19:04:18.604Z,0.50
2023-03-24T19:06:50.406Z,0.50
2023-03-24T19:09:21.161Z,0.30
2023-03-24T19:11:48.728Z,0.60
2023-03-24T19:14:16.179Z,0.60
2023-03-24T19:16:43.569Z,0.57
2023-03-24T19:19:10.926Z,0.47
2023-03-24T19:21:40.488Z,0.47
2023-03-24T19:24:08.167Z,0.50
2023-03-24T19:26:35.887Z,0.50
2023-03-24T19:29:03.285Z,0.60
2023-03-24T19:31:35.281Z,0.70
2023-03-24T19:34:02.888Z,0.67
2023-03-24T19:36:30.250Z,0.50
2023-03-24T19:38:57.566Z,0.60
2023-03-24T19:41:26.475Z,0.67
2023-03-24T19:43:54.109Z,0.60
2023-03-24T19:46:21.627Z,0.60
2023-03-24T19:48:49.126Z,0.90
2023-03-24T19:51:16.645Z,0.77
2023-03-24T19:53:44.020Z,1.00
2023-03-24T19:56:11.453Z,0.97
2023-03-24T19:58:38.873Z,1.03
2023-03-24T20:01:06.504Z,1.10
2023-03-24T20:03:36.718Z,1.00
2023-03-24T20:06:11.009Z,1.03
2023-03-24T20:08:39.331Z,1.20
2023-03-24T20:11:11.094Z,1.57
2023-03-24T20:13:38.663Z,1.40
2023-03-24T20:16:06.273Z,1.27
2023-03-24T20:18:34.738Z,1.20
2023-03-24T20:21:02.520Z,1.27
2023-03-24T20:23:29.885Z,1.20
2023-03-24T20:26:00.106Z,1.23
2023-03-24T20:28:28.372Z,1.40
2023-03-24T20:30:59.959Z,1.87
2023-03-24T20:33:28.898Z,1.20
2023-03-24T20:35:57.007Z,1.80
2023-03-24T20:38:25.177Z,1.20
2023-03-24T20:41:02.127Z,1.17
2023-03-24T20:43:29.804Z,1.33
2023-03-24T20:45:58.015Z,1.50
2023-03-24T20:48:25.889Z,1.20
2023-03-24T20:50:53.366Z,1.40
2023-03-24T20:53:21.082Z,1.27
2023-03-24T20:56:01.062Z,1.17
2023-03-24T20:58:28.995Z,1.20
2023-03-24T21:00:56.608Z,1.23
2023-03-24T21:03:24.724Z,0.80
2023-03-24T21:05:52.717Z,1.27
2023-03-24T21:08:20.412Z,1.60
2023-03-24T21:10:47.859Z,1.00
2023-03-24T21:13:16.883Z,0.90
2023-03-24T21:15:45.207Z,0.70
2023-03-24T21:18:12.601Z,0.50
2023-03-24T21:20:40.205Z,0.50
2023-03-24T21:23:09.712Z,0.30
2023-03-24T21:25:37.771Z,0.30
2023-03-24T21:28:05.291Z,0.20
2023-03-24T21:30:32.728Z,0.30
2023-03-24T21:33:01.060Z,0.30
2023-03-24T21:35:28.927Z,0.40
2023-03-24T21:37:56.621Z,0.40
2023-03-24T21:40:25.536Z,0.30
2023-03-24T21:42:56.383Z,0.30
2023-03-24T21:45:24.411Z,0.30
2023-03-24T21:47:55.440Z,0.27
2023-03-24T21:50:25.856Z,0.20
2023-03-24T21:52:54.888Z,0.60
2023-03-24T21:55:22.777Z,0.50
2023-03-24T21:57:52.094Z,0.40
2023-03-24T22:00:23.890Z,0.23
2023-03-24T22:02:52.860Z,0.40
2023-03-24T22:05:24.330Z,0.50
2023-03-24T22:07:51.731Z,0.50
2023-03-24T22:10:22.877Z,0.40
2023-03-24T22:12:51.451Z,0.50
2023-03-24T22:15:19.550Z,0.40
2023-03-24T22:17:47.048Z,0.50
2023-03-24T22:20:14.934Z,0.50
2023-03-24T22:22:42.598Z,0.77
2023-03-24T22:25:11.202Z,0.60
2023-03-24T22:27:39.433Z,0.57
2023-03-24T22:30:07.885Z,0.77
2023-03-24T22:32:36.533Z,0.80
2023-03-24T22:35:03.980Z,1.13
2023-03-24T22:37:31.743Z,0.87
2023-03-24T22:39:59.212Z,1.00
2023-03-24T22:42:26.600Z,1.00
2023-03-24T22:44:53.881Z,1.03
2023-03-24T22:47:21.366Z,1.20
2023-03-24T22:49:48.760Z,1.23
2023-03-24T22:52:16.004Z,1.00
2023-03-24T22:54:43.362Z,1.00
2023-03-24T22:57:10.960Z,1.17
2023-03-24T22:59:38.389Z,1.10
2023-03-24T23:02:09.960Z,1.20
2023-03-24T23:04:40.635Z,0.90
2023-03-24T23:07:08.449Z,1.40
2023-03-24T23:09:36.714Z,1.03
2023-03-24T23:12:04.655Z,0.93
2023-03-24T23:14:31.964Z,0.60
2023-03-24T23:16:59.341Z,1.07
2023-03-24T23:19:27.652Z,0.73
2023-03-24T23:21:55.019Z,0.50
2023-03-24T23:24:22.412Z,0.80
2023-03-24T23:26:50.023Z,0.60
2023-03-24T23:29:17.440Z,0.53
2023-03-24T23:31:44.859Z,0.60
2023-03-24T23:34:15.045Z,0.40
2023-03-24T23:36:45.080Z,0.40
2023-03-24T23:39:12.567Z,0.50
2023-03-24T23:41:39.928Z,0.47
2023-03-24T23:44:07.314Z,0.47
2023-03-24T23:46:34.831Z,0.50
2023-03-24T23:49:02.349Z,0.40
2023-03-24T23:51:29.765Z,0.50
2023-03-24T23:53:57.180Z,0.60
2023-03-24T23:56:24.446Z,0.50
2023-03-24T23:58:52.375Z,0.60
